createdAt,value
2022-08-26T00:00:01.021Z,85.22
2022-08-26T00:01:01.060Z,85.11
2022-08-26T00:02:01.217Z,85.22
2022-08-26T00:03:01.205Z,85.22
2022-08-26T00:04:01.269Z,85.11
2022-08-26T00:05:01.222Z,85.22
2022-08-26T00:06:01.263Z,85.02
2022-08-26T00:07:01.313Z,85.22
2022-08-26T00:08:01.397Z,85.11
2022-08-26T00:09:01.486Z,85.22
2022-08-26T00:10:01.444Z,85.22
2022-08-26T00:11:01.504Z,85.22
2022-08-26T00:12:01.536Z,85.22
2022-08-26T00:13:01.598Z,85.41
2022-08-26T00:14:01.564Z,85.61
2022-08-26T00:15:01.638Z,85.31
2022-08-26T00:16:01.675Z,85.41
2022-08-26T00:17:01.728Z,85.46
2022-08-26T00:18:01.716Z,85.25
2022-08-26T00:19:01.757Z,85.36
2022-08-26T00:20:01.817Z,85.36
2022-08-26T00:21:01.864Z,85.75
2022-08-26T00:22:01.878Z,85.75
2022-08-26T00:23:01.946Z,85.96
2022-08-26T00:24:01.938Z,86.06
2022-08-26T00:25:01.957Z,86.36
2022-08-26T00:26:01.951Z,86.06
2022-08-26T00:27:01.999Z,86.16
2022-08-26T00:28:02.028Z,86.16
2022-08-26T00:29:02.060Z,86.06
2022-08-26T00:30:02.121Z,86.06
2022-08-26T00:31:02.081Z,85.96
2022-08-26T00:32:02.107Z,86.26
2022-08-26T00:33:02.074Z,86.40
2022-08-26T00:34:02.092Z,86.20
2022-08-26T00:35:02.120Z,86.40
2022-08-26T00:36:02.176Z,86.60
2022-08-26T00:37:02.203Z,86.60
2022-08-26T00:38:02.254Z,87.01
2022-08-26T00:39:02.277Z,86.90
2022-08-26T00:40:05.299Z,86.90
2022-08-26T00:41:02.346Z,86.90
2022-08-26T00:42:02.416Z,86.60
2022-08-26T00:43:02.467Z,86.80
2022-08-26T00:44:02.474Z,86.90
2022-08-26T00:45:02.466Z,86.80
2022-08-26T00:46:02.612Z,86.80
2022-08-26T00:47:02.567Z,86.80
2022-08-26T00:48:02.609Z,87.51
2022-08-26T00:49:02.601Z,87.21
2022-08-26T00:50:02.608Z,87.15
2022-08-26T00:51:02.646Z,87.24
2022-08-26T00:52:02.678Z,87.24
2022-08-26T00:53:02.730Z,87.24
2022-08-26T00:54:02.752Z,87.35
2022-08-26T00:55:02.817Z,87.35
2022-08-26T00:56:02.791Z,87.45
2022-08-26T00:57:02.841Z,87.75
2022-08-26T00:58:02.821Z,87.65
2022-08-26T00:59:02.870Z,88.15
2022-08-26T01:00:02.890Z,88.35
2022-08-26T01:01:02.954Z,87.85
2022-08-26T01:02:03.208Z,87.95
2022-08-26T01:03:02.990Z,88.05
2022-08-26T01:04:03.014Z,88.25
2022-08-26T01:05:03.415Z,88.15
2022-08-26T01:06:03.064Z,88.15
2022-08-26T01:07:03.063Z,88.65
2022-08-26T01:08:03.561Z,88.85
2022-08-26T01:09:03.127Z,88.45
2022-08-26T01:10:03.167Z,87.95
2022-08-26T01:11:03.176Z,88.11
2022-08-26T01:12:03.206Z,87.91
2022-08-26T01:13:03.267Z,87.71
2022-08-26T01:14:03.297Z,87.41
2022-08-26T01:15:03.337Z,87.21
2022-08-26T01:16:03.400Z,86.90
2022-08-26T01:17:03.368Z,86.66
2022-08-26T01:18:03.408Z,86.26
2022-08-26T01:19:03.456Z,86.26
2022-08-26T01:20:03.569Z,85.66
2022-08-26T01:21:03.523Z,85.66
2022-08-26T01:22:03.565Z,85.80
2022-08-26T01:23:03.773Z,86.00
2022-08-26T01:24:03.630Z,86.10
2022-08-26T01:25:03.867Z,86.10
2022-08-26T01:26:03.661Z,86.40
2022-08-26T01:27:03.741Z,86.80
2022-08-26T01:28:03.779Z,87.01
2022-08-26T01:29:03.843Z,86.90
2022-08-26T01:30:03.821Z,86.70
2022-08-26T01:31:03.863Z,86.90
2022-08-26T01:32:04.997Z,87.10
2022-08-26T01:33:03.958Z,87.04
2022-08-26T01:34:03.983Z,86.85
2022-08-26T01:35:04.034Z,87.15
2022-08-26T01:36:04.083Z,87.24
2022-08-26T01:37:04.105Z,87.15
2022-08-26T01:38:04.155Z,87.04
2022-08-26T01:39:05.946Z,87.15
2022-08-26T01:40:04.290Z,87.35
2022-08-26T01:41:04.267Z,87.04
2022-08-26T01:42:04.297Z,87.55
2022-08-26T01:43:04.394Z,87.75
2022-08-26T01:44:04.327Z,87.59
2022-08-26T01:45:04.390Z,87.89
2022-08-26T01:46:04.470Z,87.99
2022-08-26T01:47:05.177Z,88.09
2022-08-26T01:48:04.469Z,88.19
2022-08-26T01:49:04.519Z,88.29
2022-08-26T01:50:04.559Z,87.99
2022-08-26T01:51:04.610Z,87.89
2022-08-26T01:52:04.660Z,88.09
2022-08-26T01:53:04.709Z,88.29
2022-08-26T01:54:04.753Z,88.39
2022-08-26T01:55:04.811Z,88.90
2022-08-26T01:56:04.863Z,88.79
2022-08-26T01:57:04.884Z,88.79
2022-08-26T01:58:05.246Z,88.90
2022-08-26T01:59:04.982Z,88.90
2022-08-26T02:00:05.043Z,88.59
2022-08-26T02:01:05.108Z,88.90
2022-08-26T02:02:05.148Z,89.00
2022-08-26T02:03:05.198Z,89.10
2022-08-26T02:04:05.186Z,89.10
2022-08-26T02:05:05.213Z,89.14
2022-08-26T02:06:05.275Z,89.44
2022-08-26T02:07:05.314Z,89.84
2022-08-26T02:08:05.366Z,89.95
2022-08-26T02:09:05.396Z,90.15
2022-08-26T02:10:05.437Z,90.15
2022-08-26T02:11:05.496Z,89.95
2022-08-26T02:12:05.458Z,90.15
2022-08-26T02:13:05.513Z,90.25
2022-08-26T02:14:05.587Z,90.15
2022-08-26T02:15:05.900Z,90.15
2022-08-26T02:16:05.686Z,89.95
2022-08-26T02:17:05.668Z,90.15
2022-08-26T02:18:05.709Z,90.25
2022-08-26T02:19:05.749Z,90.55
2022-08-26T02:20:05.730Z,90.45
2022-08-26T02:21:06.753Z,90.65
2022-08-26T02:22:05.774Z,90.45
2022-08-26T02:23:05.895Z,90.34
2022-08-26T02:24:05.832Z,90.45
2022-08-26T02:25:05.871Z,90.09
2022-08-26T02:26:05.872Z,90.59
2022-08-26T02:27:05.923Z,90.89
2022-08-26T02:28:05.896Z,90.69
2022-08-26T02:29:05.915Z,90.99
2022-08-26T02:30:05.975Z,90.79
2022-08-26T02:31:06.065Z,91.09
2022-08-26T02:32:06.094Z,91.19
2022-08-26T02:33:06.264Z,91.09
2022-08-26T02:34:06.194Z,90.99
2022-08-26T02:35:06.275Z,91.39
2022-08-26T02:36:06.314Z,91.70
2022-08-26T02:37:06.376Z,91.70
2022-08-26T02:38:09.942Z,91.70
2022-08-26T02:39:06.478Z,91.60
2022-08-26T02:40:06.577Z,91.50
2022-08-26T02:41:06.598Z,91.39
2022-08-26T02:42:06.632Z,91.50
2022-08-26T02:43:08.560Z,91.70
2022-08-26T02:44:06.709Z,91.60
2022-08-26T02:45:06.689Z,91.60
2022-08-26T02:46:06.722Z,91.70
2022-08-26T02:47:06.809Z,91.80
2022-08-26T02:48:06.750Z,91.90
2022-08-26T02:49:06.800Z,92.10
2022-08-26T02:50:06.849Z,92.05
2022-08-26T02:51:06.870Z,92.25
2022-08-26T02:52:06.940Z,92.35
2022-08-26T02:53:07.171Z,92.14
2022-08-26T02:54:06.922Z,92.05
2022-08-26T02:55:06.973Z,92.05
2022-08-26T02:56:07.021Z,92.45
2022-08-26T02:57:07.061Z,92.45
2022-08-26T02:58:07.113Z,92.35
2022-08-26T02:59:07.164Z,92.45
2022-08-26T03:00:07.224Z,92.45
2022-08-26T03:01:07.316Z,92.75
2022-08-26T03:02:07.403Z,92.75
2022-08-26T03:03:07.484Z,92.45
2022-08-26T03:04:07.386Z,92.25
2022-08-26T03:05:07.429Z,92.45
2022-08-26T03:06:07.466Z,92.95
2022-08-26T03:07:07.495Z,93.05
2022-08-26T03:08:07.507Z,93.26
2022-08-26T03:09:07.567Z,93.26
2022-08-26T03:10:08.666Z,93.05
2022-08-26T03:11:07.578Z,93.15
2022-08-26T03:12:07.629Z,93.15
2022-08-26T03:13:07.963Z,93.15
2022-08-26T03:14:07.760Z,93.26
2022-08-26T03:15:17.634Z,93.46
2022-08-26T03:16:07.802Z,93.26
2022-08-26T03:17:07.800Z,93.05
2022-08-26T03:18:07.853Z,93.05
2022-08-26T03:19:07.892Z,93.05
2022-08-26T03:20:07.971Z,92.95
2022-08-26T03:21:07.951Z,92.85
2022-08-26T03:22:08.003Z,92.95
2022-08-26T03:23:08.213Z,93.05
2022-08-26T03:24:08.114Z,92.95
2022-08-26T03:25:08.163Z,92.85
2022-08-26T03:26:08.224Z,92.65
2022-08-26T03:27:08.223Z,92.85
2022-08-26T03:28:09.622Z,92.75
2022-08-26T03:29:08.334Z,92.95
2022-08-26T03:30:08.323Z,92.95
2022-08-26T03:31:08.482Z,93.15
2022-08-26T03:32:08.396Z,93.26
2022-08-26T03:33:08.472Z,93.15
2022-08-26T03:34:08.386Z,93.15
2022-08-26T03:35:08.436Z,93.46
2022-08-26T03:36:08.486Z,93.35
2022-08-26T03:37:08.537Z,93.30
2022-08-26T03:38:08.598Z,93.05
2022-08-26T03:39:08.582Z,93.10
2022-08-26T03:40:08.691Z,92.90
2022-08-26T03:41:08.669Z,92.99
2022-08-26T03:42:08.758Z,93.55
2022-08-26T03:43:09.853Z,93.86
2022-08-26T03:44:08.750Z,93.66
2022-08-26T03:45:08.797Z,93.66
2022-08-26T03:46:08.889Z,93.66
2022-08-26T03:47:08.850Z,93.46
2022-08-26T03:48:08.892Z,93.35
2022-08-26T03:49:08.948Z,93.11
2022-08-26T03:50:09.001Z,93.01
2022-08-26T03:51:09.002Z,92.91
2022-08-26T03:52:09.054Z,92.60
2022-08-26T03:53:12.827Z,92.71
2022-08-26T03:54:09.123Z,92.71
2022-08-26T03:55:09.083Z,92.60
2022-08-26T03:56:09.111Z,92.80
2022-08-26T03:57:09.134Z,92.91
2022-08-26T03:58:09.184Z,92.80
2022-08-26T03:59:09.251Z,92.40
2022-08-26T04:00:09.304Z,92.40
2022-08-26T04:01:09.325Z,92.00
2022-08-26T04:02:11.584Z,92.20
2022-08-26T04:03:10.065Z,92.00
2022-08-26T04:04:09.398Z,92.10
2022-08-26T04:05:09.392Z,92.50
2022-08-26T04:06:09.443Z,92.50
2022-08-26T04:07:09.427Z,92.50
2022-08-26T04:08:09.428Z,92.30
2022-08-26T04:09:09.448Z,92.30
2022-08-26T04:10:09.519Z,92.30
2022-08-26T04:11:09.529Z,92.30
2022-08-26T04:12:09.580Z,92.46
2022-08-26T04:13:09.807Z,92.36
2022-08-26T04:14:09.709Z,92.16
2022-08-26T04:15:09.731Z,92.16
2022-08-26T04:16:10.253Z,92.06
2022-08-26T04:17:09.831Z,91.96
2022-08-26T04:18:09.971Z,91.86
2022-08-26T04:19:09.871Z,91.55
2022-08-26T04:20:09.911Z,91.35
2022-08-26T04:21:09.882Z,91.15
2022-08-26T04:22:09.893Z,91.05
2022-08-26T04:23:09.944Z,91.05
2022-08-26T04:24:11.827Z,91.15
2022-08-26T04:25:10.054Z,91.25
2022-08-26T04:26:10.058Z,91.25
2022-08-26T04:27:10.034Z,91.46
2022-08-26T04:28:10.097Z,91.66
2022-08-26T04:29:10.167Z,91.61
2022-08-26T04:30:10.156Z,91.51
2022-08-26T04:31:10.186Z,91.41
2022-08-26T04:32:10.195Z,91.41
2022-08-26T04:33:13.156Z,91.11
2022-08-26T04:34:11.099Z,90.70
2022-08-26T04:35:10.225Z,90.41
2022-08-26T04:36:10.230Z,90.20
2022-08-26T04:37:10.222Z,90.11
2022-08-26T04:38:10.228Z,90.00
2022-08-26T04:39:10.249Z,89.80
2022-08-26T04:40:10.306Z,89.80
2022-08-26T04:41:14.926Z,89.20
2022-08-26T04:42:10.352Z,89.40
2022-08-26T04:43:10.370Z,89.50
2022-08-26T04:44:10.371Z,89.46
2022-08-26T04:45:11.788Z,89.10
2022-08-26T04:46:10.563Z,88.95
2022-08-26T04:47:10.493Z,88.95
2022-08-26T04:48:11.166Z,89.00
2022-08-26T04:49:10.602Z,89.20
2022-08-26T04:50:11.027Z,89.30
2022-08-26T04:51:10.633Z,89.10
2022-08-26T04:52:10.643Z,89.20
2022-08-26T04:53:10.654Z,89.30
2022-08-26T04:54:10.675Z,89.50
2022-08-26T04:55:10.664Z,89.60
2022-08-26T04:56:10.705Z,89.70
2022-08-26T04:57:10.767Z,89.60
2022-08-26T04:58:10.793Z,89.60
2022-08-26T04:59:16.624Z,89.50
2022-08-26T05:00:10.846Z,89.40
2022-08-26T05:01:10.955Z,89.70
2022-08-26T05:02:10.987Z,89.90
2022-08-26T05:03:11.017Z,90.20
2022-08-26T05:04:11.053Z,90.11
2022-08-26T05:06:37.288Z,89.96
2022-08-26T05:07:37.106Z,89.86
2022-08-26T05:08:37.117Z,89.76
2022-08-26T05:09:37.110Z,89.86
2022-08-26T05:10:37.107Z,90.16
2022-08-26T05:11:37.147Z,90.26
2022-08-26T05:12:37.201Z,90.26
2022-08-26T05:13:37.199Z,90.16
2022-08-26T05:14:37.268Z,90.26
2022-08-26T05:15:37.332Z,90.06
2022-08-26T05:16:37.337Z,90.46
2022-08-26T05:17:37.380Z,90.56
2022-08-26T05:18:37.409Z,90.56
2022-08-26T05:19:37.480Z,90.56
2022-08-26T05:20:37.471Z,90.56
2022-08-26T05:21:37.519Z,90.66
2022-08-26T05:22:37.491Z,90.56
2022-08-26T05:23:37.563Z,90.46
2022-08-26T05:24:37.651Z,90.42
2022-08-26T05:25:37.693Z,90.22
2022-08-26T05:26:37.677Z,90.12
2022-08-26T05:27:37.673Z,89.58
2022-08-26T05:28:37.661Z,88.83
2022-08-26T05:29:37.674Z,88.09
2022-08-26T05:30:37.730Z,87.14
2022-08-26T05:31:37.754Z,86.54
2022-08-26T05:32:37.767Z,86.64
2022-08-26T05:33:37.755Z,86.50
2022-08-26T05:34:37.754Z,86.50
2022-08-26T05:35:37.755Z,86.44
2022-08-26T05:36:37.869Z,86.80
2022-08-26T05:37:37.886Z,86.69
2022-08-26T05:38:37.876Z,86.80
2022-08-26T05:39:37.930Z,86.60
2022-08-26T05:40:38.043Z,86.69
2022-08-26T05:41:38.532Z,86.69
2022-08-26T05:42:38.038Z,86.80
2022-08-26T05:43:38.050Z,86.50
2022-08-26T05:44:53.585Z,86.69
2022-08-26T05:45:41.197Z,86.40
2022-08-26T05:46:38.202Z,86.40
2022-08-26T05:47:38.163Z,86.25
2022-08-26T05:48:38.233Z,86.16
2022-08-26T05:49:43.765Z,86.25
2022-08-26T05:50:38.322Z,86.25
2022-08-26T05:51:38.382Z,85.96
2022-08-26T05:52:38.433Z,86.05
2022-08-26T05:53:38.462Z,85.85
2022-08-26T05:54:38.474Z,85.85
2022-08-26T05:55:38.544Z,85.55
2022-08-26T05:56:38.618Z,84.91
2022-08-26T05:57:42.185Z,84.91
2022-08-26T05:58:38.705Z,85.11
2022-08-26T05:59:38.705Z,84.57
2022-08-26T06:00:38.696Z,84.27
2022-08-26T06:01:38.723Z,84.07
2022-08-26T06:02:38.846Z,83.37
2022-08-26T06:03:38.744Z,82.97
2022-08-26T06:04:38.778Z,82.97
2022-08-26T06:05:39.239Z,82.87
2022-08-26T06:06:38.818Z,82.97
2022-08-26T06:07:38.809Z,82.67
2022-08-26T06:08:38.839Z,82.47
2022-08-26T06:09:38.919Z,82.47
2022-08-26T06:10:38.920Z,82.07
2022-08-26T06:11:38.961Z,82.37
2022-08-26T06:12:38.961Z,82.27
2022-08-26T06:13:38.961Z,81.87
2022-08-26T06:14:38.990Z,81.87
2022-08-26T06:15:39.085Z,81.87
2022-08-26T06:16:40.834Z,82.07
2022-08-26T06:17:39.021Z,81.47
2022-08-26T06:18:39.023Z,81.03
2022-08-26T06:19:39.083Z,80.83
2022-08-26T06:20:39.116Z,80.93
2022-08-26T06:21:39.205Z,81.13
2022-08-26T06:22:39.225Z,80.83
2022-08-26T06:23:39.256Z,80.83
2022-08-26T06:24:39.325Z,80.69
2022-08-26T06:25:39.335Z,80.09
2022-08-26T06:26:39.354Z,79.99
2022-08-26T06:27:39.390Z,79.75
2022-08-26T06:28:39.427Z,79.25
2022-08-26T06:29:39.482Z,78.81
2022-08-26T06:30:39.528Z,78.28
2022-08-26T06:31:40.010Z,77.78
2022-08-26T06:32:39.602Z,77.68
2022-08-26T06:33:39.632Z,77.44
2022-08-26T06:34:39.699Z,76.91
2022-08-26T06:35:39.720Z,75.87
2022-08-26T06:36:39.767Z,75.04
2022-08-26T06:37:39.771Z,74.11
2022-08-26T06:38:39.782Z,73.57
2022-08-26T06:39:41.191Z,72.55
2022-08-26T06:40:39.863Z,71.61
2022-08-26T06:41:43.239Z,70.65
2022-08-26T06:42:39.863Z,69.43
2022-08-26T06:43:39.907Z,68.40
2022-08-26T06:44:41.093Z,68.70
2022-08-26T06:45:39.972Z,68.07
2022-08-26T06:46:40.057Z,67.87
2022-08-26T06:47:40.047Z,67.87
2022-08-26T06:48:40.046Z,68.04
2022-08-26T06:49:40.096Z,67.24
2022-08-26T06:50:40.148Z,67.24
2022-08-26T06:51:40.189Z,67.11
2022-08-26T06:52:40.219Z,66.42
2022-08-26T06:53:41.069Z,66.39
2022-08-26T06:54:40.291Z,66.19
2022-08-26T06:55:40.310Z,66.09
2022-08-26T06:56:40.352Z,65.13
2022-08-26T06:57:41.238Z,64.41
2022-08-26T06:58:40.595Z,63.89
2022-08-26T06:59:40.403Z,63.26
2022-08-26T07:00:40.434Z,62.84
2022-08-26T07:01:43.054Z,62.04
2022-08-26T07:02:40.752Z,62.14
2022-08-26T07:03:40.597Z,62.01
2022-08-26T07:04:41.331Z,61.42
2022-08-26T07:05:40.586Z,61.91
2022-08-26T07:06:43.336Z,62.01
2022-08-26T07:07:40.676Z,61.19
2022-08-26T07:08:41.465Z,60.54
2022-08-26T07:09:40.688Z,59.43
2022-08-26T07:10:40.749Z,58.71
2022-08-26T07:11:40.709Z,58.61
2022-08-26T07:12:40.749Z,58.51
2022-08-26T07:13:40.841Z,58.39
2022-08-26T07:14:40.896Z,57.70
2022-08-26T07:15:40.932Z,57.90
2022-08-26T07:16:40.940Z,57.57
2022-08-26T07:17:40.953Z,57.05
2022-08-26T07:18:41.006Z,56.62
2022-08-26T07:19:41.074Z,58.67
2022-08-26T07:20:41.063Z,60.11
2022-08-26T07:21:41.104Z,60.57
2022-08-26T07:22:41.147Z,59.48
2022-08-26T07:23:41.196Z,60.18
2022-08-26T07:24:41.250Z,59.56
2022-08-26T07:25:41.306Z,60.50
2022-08-26T07:26:43.121Z,61.13
2022-08-26T07:27:41.387Z,60.83
2022-08-26T07:28:43.237Z,60.14
2022-08-26T07:29:41.514Z,59.94
2022-08-26T07:30:41.507Z,59.32
2022-08-26T07:31:42.429Z,58.87
2022-08-26T07:32:41.611Z,59.61
2022-08-26T07:33:41.551Z,60.73
2022-08-26T07:34:41.919Z,60.93
2022-08-26T07:35:41.691Z,60.46
2022-08-26T07:36:41.623Z,60.04
2022-08-26T07:37:41.648Z,59.52
2022-08-26T07:38:41.649Z,58.37
2022-08-26T07:39:41.665Z,58.05
2022-08-26T07:40:41.704Z,57.65
2022-08-26T07:41:41.726Z,57.88
2022-08-26T07:42:41.775Z,57.26
2022-08-26T07:43:41.793Z,57.06
2022-08-26T07:44:41.773Z,57.06
2022-08-26T07:45:41.766Z,56.77
2022-08-26T07:46:41.785Z,56.99
2022-08-26T07:47:41.851Z,57.26
2022-08-26T07:48:46.064Z,57.06
2022-08-26T07:49:41.893Z,56.64
2022-08-26T07:50:50.227Z,56.64
2022-08-26T07:51:41.950Z,55.95
2022-08-26T07:52:41.953Z,55.14
2022-08-26T07:53:42.002Z,54.82
2022-08-26T07:54:42.005Z,54.60
2022-08-26T07:55:42.003Z,53.88
2022-08-26T07:56:42.043Z,53.98
2022-08-26T07:57:42.096Z,53.88
2022-08-26T07:58:42.111Z,54.17
2022-08-26T07:59:42.183Z,54.89
2022-08-26T08:00:42.213Z,54.89
2022-08-26T08:01:44.774Z,53.88
2022-08-26T08:02:42.277Z,54.30
2022-08-26T08:03:42.297Z,54.69
2022-08-26T08:04:42.394Z,54.72
2022-08-26T08:05:42.388Z,55.43
2022-08-26T08:06:43.853Z,55.04
2022-08-26T08:07:44.885Z,55.53
2022-08-26T08:08:42.521Z,55.24
2022-08-26T08:09:42.589Z,55.11
2022-08-26T08:10:42.639Z,54.69
2022-08-26T08:11:42.647Z,54.69
2022-08-26T08:12:42.620Z,55.11
2022-08-26T08:13:42.681Z,54.69
2022-08-26T08:14:42.651Z,55.51
2022-08-26T08:15:42.671Z,54.89
2022-08-26T08:16:47.054Z,54.37
2022-08-26T08:17:42.724Z,54.47
2022-08-26T08:18:42.796Z,54.27
2022-08-26T08:19:42.835Z,53.85
2022-08-26T08:20:47.694Z,53.63
2022-08-26T08:21:42.905Z,52.40
2022-08-26T08:22:42.966Z,52.30
2022-08-26T08:23:42.956Z,52.33
2022-08-26T08:24:42.947Z,53.68
2022-08-26T08:25:42.975Z,54.52
2022-08-26T08:26:43.005Z,55.49
2022-08-26T08:27:43.002Z,56.21
2022-08-26T08:28:43.015Z,56.50
2022-08-26T08:29:43.040Z,55.88
2022-08-26T08:30:43.132Z,55.04
2022-08-26T08:31:56.724Z,54.33
2022-08-26T08:32:43.358Z,53.93
2022-08-26T08:33:43.181Z,54.25
2022-08-26T08:35:43.921Z,53.93
2022-08-26T08:36:43.286Z,52.70
2022-08-26T08:37:43.313Z,52.15
2022-08-26T08:38:43.356Z,51.17
2022-08-26T08:39:43.719Z,50.85
2022-08-26T08:40:43.384Z,51.10
2022-08-26T08:41:43.365Z,52.55
2022-08-26T08:42:43.412Z,53.39
2022-08-26T08:43:43.367Z,55.02
2022-08-26T08:44:43.431Z,55.62
2022-08-26T08:45:43.446Z,55.41
2022-08-26T08:46:43.541Z,56.60
2022-08-26T08:47:43.431Z,55.74
2022-08-26T08:48:43.438Z,55.81
2022-08-26T08:49:43.449Z,55.62
2022-08-26T08:50:43.521Z,56.53
2022-08-26T08:51:43.570Z,56.23
2022-08-26T08:52:43.753Z,56.63
2022-08-26T08:53:43.621Z,56.63
2022-08-26T08:54:43.642Z,56.50
2022-08-26T08:55:43.670Z,56.18
2022-08-26T08:56:43.696Z,55.58
2022-08-26T08:57:43.704Z,55.56
2022-08-26T08:58:43.794Z,55.46
2022-08-26T08:59:43.774Z,55.49
2022-08-26T09:00:43.775Z,56.01
2022-08-26T09:01:43.835Z,56.30
2022-08-26T09:02:43.811Z,56.21
2022-08-26T09:03:43.867Z,57.12
2022-08-26T09:04:43.815Z,56.92
2022-08-26T09:05:48.541Z,57.32
2022-08-26T09:06:43.858Z,56.73
2022-08-26T09:07:43.879Z,57.02
2022-08-26T09:08:43.849Z,56.73
2022-08-26T09:09:43.851Z,56.63
2022-08-26T09:10:44.146Z,57.32
2022-08-26T09:11:43.891Z,56.90
2022-08-26T09:12:44.182Z,55.95
2022-08-26T09:13:43.934Z,55.85
2022-08-26T09:14:43.944Z,55.56
2022-08-26T09:15:44.032Z,55.01
2022-08-26T09:16:44.104Z,54.10
2022-08-26T09:17:44.049Z,52.67
2022-08-26T09:18:46.182Z,51.64
2022-08-26T09:19:44.046Z,51.34
2022-08-26T09:20:44.095Z,51.25
2022-08-26T09:21:44.120Z,50.51
2022-08-26T09:22:44.382Z,50.22
2022-08-26T09:23:44.131Z,50.09
2022-08-26T09:24:49.072Z,50.29
2022-08-26T09:25:44.215Z,50.12
2022-08-26T09:26:44.129Z,50.71
2022-08-26T09:27:44.173Z,50.83
2022-08-26T09:28:44.230Z,51.25
2022-08-26T09:29:44.367Z,51.76
2022-08-26T09:30:44.291Z,52.35
2022-08-26T09:31:44.271Z,51.96
2022-08-26T09:32:44.292Z,52.25
2022-08-26T09:33:44.342Z,52.33
2022-08-26T09:34:44.373Z,51.96
2022-08-26T09:35:44.387Z,53.61
2022-08-26T09:36:44.383Z,54.00
2022-08-26T09:38:44.445Z,52.97
2022-08-26T09:39:44.487Z,51.93
2022-08-26T09:40:44.559Z,51.22
2022-08-26T09:41:44.598Z,50.78
2022-08-26T09:42:44.669Z,50.29
2022-08-26T09:43:44.715Z,50.39
2022-08-26T09:44:44.767Z,50.68
2022-08-26T09:45:50.116Z,50.51
2022-08-26T09:46:44.841Z,51.22
2022-08-26T09:47:44.830Z,51.12
2022-08-26T09:48:44.831Z,51.22
2022-08-26T09:49:44.840Z,51.74
2022-08-26T09:50:44.916Z,51.62
2022-08-26T09:51:44.911Z,50.81
2022-08-26T09:52:44.971Z,51.32
2022-08-26T09:53:44.973Z,53.09
2022-08-26T09:54:46.018Z,54.00
2022-08-26T09:55:46.016Z,54.72
2022-08-26T09:56:45.022Z,54.82
2022-08-26T09:57:45.116Z,54.03
2022-08-26T09:58:45.155Z,53.61
2022-08-26T09:59:45.106Z,53.70
2022-08-26T10:00:45.116Z,54.03
2022-08-26T10:01:46.142Z,54.13
2022-08-26T10:02:47.661Z,54.13
2022-08-26T10:03:45.243Z,55.33
2022-08-26T10:04:46.234Z,55.46
2022-08-26T10:05:45.789Z,56.18
2022-08-26T10:06:45.222Z,56.40
2022-08-26T10:07:45.290Z,56.80
2022-08-26T10:08:47.678Z,56.90
2022-08-26T10:09:45.351Z,56.54
2022-08-26T10:10:45.400Z,55.33
2022-08-26T10:11:45.431Z,55.53
2022-08-26T10:12:45.412Z,55.11
2022-08-26T10:13:45.550Z,54.79
2022-08-26T10:15:48.743Z,54.89
2022-08-26T10:16:45.622Z,54.69
2022-08-26T10:17:45.506Z,54.69
2022-08-26T10:18:45.476Z,54.00
2022-08-26T10:19:55.775Z,54.62
2022-08-26T10:20:45.494Z,54.82
2022-08-26T10:21:45.527Z,54.69
2022-08-26T10:22:45.507Z,54.10
2022-08-26T10:23:45.577Z,54.10
2022-08-26T10:24:46.374Z,54.10
2022-08-26T10:25:45.629Z,54.43
2022-08-26T10:26:45.629Z,54.49
2022-08-26T10:27:51.123Z,53.98
2022-08-26T10:28:45.622Z,53.95
2022-08-26T10:29:45.661Z,53.04
2022-08-26T10:30:45.701Z,51.84
2022-08-26T10:31:45.727Z,53.04
2022-08-26T10:32:45.749Z,52.77
2022-08-26T10:33:45.784Z,53.16
2022-08-26T10:34:45.783Z,52.48
2022-08-26T10:35:45.805Z,53.36
2022-08-26T10:37:10.795Z,53.88
2022-08-26T10:37:45.845Z,52.97
2022-08-26T10:38:45.826Z,53.68
2022-08-26T10:39:46.000Z,53.16
2022-08-26T10:40:45.934Z,53.41
2022-08-26T10:41:45.848Z,54.00
2022-08-26T10:42:45.888Z,53.29
2022-08-26T10:43:45.888Z,53.09
2022-08-26T10:44:45.909Z,54.08
2022-08-26T10:45:46.050Z,54.08
2022-08-26T10:46:46.779Z,53.85
2022-08-26T10:47:46.070Z,52.94
2022-08-26T10:48:46.171Z,52.75
2022-08-26T10:49:46.191Z,52.23
2022-08-26T10:50:47.459Z,52.84
2022-08-26T10:51:46.287Z,51.91
2022-08-26T10:52:46.344Z,51.84
2022-08-26T10:53:46.424Z,52.25
2022-08-26T10:54:46.423Z,52.35
2022-08-26T10:55:46.509Z,52.84
2022-08-26T10:56:46.515Z,52.03
2022-08-26T10:57:46.529Z,53.06
2022-08-26T10:58:46.528Z,53.68
2022-08-26T10:59:46.559Z,54.22
2022-08-26T11:00:46.648Z,55.76
2022-08-26T11:01:47.070Z,55.95
2022-08-26T11:02:47.540Z,56.32
2022-08-26T11:03:46.709Z,56.05
2022-08-26T11:04:48.481Z,56.77
2022-08-26T11:05:46.737Z,56.48
2022-08-26T11:06:46.793Z,56.35
2022-08-26T11:07:46.830Z,56.12
2022-08-26T11:08:46.831Z,54.89
2022-08-26T11:09:46.858Z,55.16
2022-08-26T11:10:46.846Z,53.90
2022-08-26T11:11:47.026Z,52.67
2022-08-26T11:12:49.196Z,50.76
2022-08-26T11:13:47.006Z,49.95
2022-08-26T11:14:56.203Z,50.98
2022-08-26T11:15:47.064Z,50.90
2022-08-26T11:16:47.274Z,50.56
2022-08-26T11:17:47.105Z,50.27
2022-08-26T11:18:47.106Z,50.56
2022-08-26T11:20:00.102Z,51.44
2022-08-26T11:20:47.325Z,50.44
2022-08-26T11:21:47.677Z,50.90
2022-08-26T11:22:47.949Z,50.42
2022-08-26T11:23:50.178Z,50.24
2022-08-26T11:24:47.172Z,51.25
2022-08-26T11:25:47.150Z,51.27
2022-08-26T11:26:56.265Z,51.44
2022-08-26T11:27:47.182Z,51.86
2022-08-26T11:28:47.222Z,52.99
2022-08-26T11:29:47.283Z,53.31
2022-08-26T11:30:47.350Z,52.99
2022-08-26T11:31:47.381Z,53.06
2022-08-26T11:32:48.695Z,52.18
2022-08-26T11:33:47.384Z,51.96
2022-08-26T11:34:47.465Z,51.66
2022-08-26T11:35:47.444Z,51.12
2022-08-26T11:36:47.487Z,50.42
2022-08-26T11:37:47.547Z,50.04
2022-08-26T11:38:47.608Z,51.37
2022-08-26T11:39:52.623Z,52.89
2022-08-26T11:40:47.658Z,53.63
2022-08-26T11:41:47.736Z,53.21
2022-08-26T11:42:47.818Z,52.69
2022-08-26T11:43:47.762Z,53.46
2022-08-26T11:45:05.486Z,54.17
2022-08-26T11:45:47.882Z,55.11
2022-08-26T11:46:48.651Z,55.97
2022-08-26T11:47:49.316Z,54.14
2022-08-26T11:48:48.096Z,53.63
2022-08-26T11:49:48.022Z,52.92
2022-08-26T11:50:48.036Z,52.92
2022-08-26T11:51:48.359Z,53.56
2022-08-26T11:52:48.114Z,54.25
2022-08-26T11:53:48.145Z,54.37
2022-08-26T11:54:48.233Z,54.27
2022-08-26T11:55:48.844Z,54.69
2022-08-26T11:56:48.294Z,54.86
2022-08-26T11:57:48.226Z,54.60
2022-08-26T11:58:49.110Z,55.16
2022-08-26T11:59:48.292Z,54.99
2022-08-26T12:00:48.261Z,54.86
2022-08-26T12:01:49.119Z,54.14
2022-08-26T12:02:48.349Z,52.94
2022-08-26T12:03:48.514Z,53.23
2022-08-26T12:04:48.455Z,53.41
2022-08-26T12:05:48.460Z,52.62
2022-08-26T12:06:48.501Z,52.62
2022-08-26T12:07:48.591Z,52.30
2022-08-26T12:08:48.622Z,52.52
2022-08-26T12:09:48.610Z,53.04
2022-08-26T12:10:48.622Z,53.36
2022-08-26T12:11:48.623Z,53.14
2022-08-26T12:12:48.614Z,52.72
2022-08-26T12:13:48.685Z,51.98
2022-08-26T12:14:48.714Z,51.46
2022-08-26T12:15:48.722Z,50.17
2022-08-26T12:16:48.790Z,50.78
2022-08-26T12:17:53.384Z,51.07
2022-08-26T12:18:48.876Z,50.78
2022-08-26T12:19:48.867Z,50.59
2022-08-26T12:20:48.896Z,50.17
2022-08-26T12:21:48.939Z,49.77
2022-08-26T12:22:48.976Z,50.90
2022-08-26T12:23:49.001Z,51.49
2022-08-26T12:24:48.989Z,51.10
2022-08-26T12:25:48.991Z,51.00
2022-08-26T12:26:49.041Z,51.20
2022-08-26T12:27:53.589Z,51.72
2022-08-26T12:28:49.140Z,52.52
2022-08-26T12:29:49.219Z,53.85
2022-08-26T12:30:49.242Z,53.44
2022-08-26T12:31:49.271Z,52.20
2022-08-26T12:32:57.593Z,52.03
2022-08-26T12:33:49.254Z,53.36
2022-08-26T12:34:49.245Z,53.04
2022-08-26T12:35:51.477Z,52.50
2022-08-26T12:36:49.492Z,51.79
2022-08-26T12:37:49.397Z,51.46
2022-08-26T12:38:49.497Z,50.93
2022-08-26T12:39:49.525Z,50.12
2022-08-26T12:40:49.509Z,50.81
2022-08-26T12:41:49.558Z,51.12
2022-08-26T12:42:49.579Z,52.25
2022-08-26T12:43:49.634Z,52.59
2022-08-26T12:44:54.223Z,52.40
2022-08-26T12:45:49.761Z,52.50
2022-08-26T12:46:49.967Z,52.28
2022-08-26T12:47:49.722Z,52.40
2022-08-26T12:48:50.465Z,53.31
2022-08-26T12:49:49.833Z,52.80
2022-08-26T12:50:49.742Z,52.11
2022-08-26T12:51:49.773Z,52.75
2022-08-26T12:52:49.814Z,53.85
2022-08-26T12:53:49.856Z,53.53
2022-08-26T12:54:53.522Z,52.30
2022-08-26T12:55:49.915Z,52.92
2022-08-26T12:56:49.916Z,54.25